25/6 a 3/7 - Circulación más fría en todo el país, freezer patagónico. Grandes nevadas Patagonia/Cordillera.

Avatar de Usuario
maxi_rosario_eche21
Mensajes: 9414
Registrado: Mié Sep 23, 2009 1:55 am
Ubicación: Rosario, Argentina
Contactar:

Re: 25/6 a 2/7 - Circulación más fría en todo el país, freezer patagónico. Grandes nevadas Patagonia/Cordillera.

Mensaje por maxi_rosario_eche21 » Mar Jun 30, 2020 1:34 pm

Muy ventoso y frio en Rosario. Las ráfagas no bajan de los 30kt


Avatar de Usuario
Ezequiel15
Mensajes: 11176
Registrado: Lun Ene 23, 2012 4:18 pm
Ubicación: I Casanova
Contactar:

Re: 25/6 a 2/7 - Circulación más fría en todo el país, freezer patagónico. Grandes nevadas Patagonia/Cordillera.

Mensaje por Ezequiel15 » Mar Jun 30, 2020 2:09 pm

Rio Grande 14hs: -10,8°C
In GFS we don't trust
Los datos que escribo en Clima siempre son de OCBA.
https://infometeoba.blogspot.com.ar/

Avatar de Usuario
Diecha
Mensajes: 11110
Registrado: Jue Ago 25, 2011 9:31 pm
Ubicación: Lomas de Zamora

Re: 25/6 a 2/7 - Circulación más fría en todo el país, freezer patagónico. Grandes nevadas Patagonia/Cordillera.

Mensaje por Diecha » Mar Jun 30, 2020 2:20 pm

- San Fernando 14 hs: SADF 301700Z 14010KT 1500 RA OVC005 13/12 Q1005
- Aeroparque 14 hs: SABE 301700Z 14014KT 1400 R13/1400N -DZ BR BKN008 OVC013 12/11 Q1004
- Ezeiza 14 hs: SAEZ 301700Z 14016G28KT 1500 R11/1300N DZ BR BKN006 OVC024 11/11 Q1006 (ráfaga de 52 Km/h)

Imagen
Imagen
Imagen

Avatar de Usuario
Venepuntano
Mensajes: 635
Registrado: Mar Jul 19, 2011 6:33 pm
Ubicación: San Luis

Re: 25/6 a 2/7 - Circulación más fría en todo el país, freezer patagónico. Grandes nevadas Patagonia/Cordillera.

Mensaje por Venepuntano » Mar Jun 30, 2020 2:46 pm

Agradable en San Luis

Imagen

Avatar de Usuario
fmpiscitelli
Mensajes: 4261
Registrado: Lun Ene 11, 2010 1:32 pm
Ubicación: Parque Saavedra, Ciudad de Bs As
Contactar:

Re: 25/6 a 2/7 - Circulación más fría en todo el país, freezer patagónico. Grandes nevadas Patagonia/Cordillera.

Mensaje por fmpiscitelli » Mar Jun 30, 2020 2:48 pm

Interesante Vórtice de mesoescala se está dando en el lago justo al norte de El Calafate.
Me parece que los flujos térmicos sobre el lago están haciendo de las suyas como consecuencia de la cantidad de nieve acumulada.. Dejo una captura de pantalla, pero si ponen la visible del Windy se ve hermoso:
Screenshot_2020-06-30-14-40-49.png
Al margen de esto, la Patagonia nevada me recuerda a la proyección glaciar que hacen en la película el día después de mañana jaj
"La insolencia colectiva tiene un solo antidoto, la responsabilidad Individual"


Avatar de Usuario
pupy
Mensajes: 2369
Registrado: Mar Mar 02, 2010 7:15 pm
Ubicación: Cordoba capital

Re: 25/6 a 2/7 - Circulación más fría en todo el país, freezer patagónico. Grandes nevadas Patagonia/Cordillera.

Mensaje por pupy » Mar Jun 30, 2020 3:07 pm

Cordoba Aero T 17.4 C Viento sur 25 km/h
Cordoba Obs. T 19.2 C Viento sudoeste 22 km/h
Escuela de Aviacion Militar T 17.6 C Viento sur 37 km/h

Rio Cuarto T 8.2 C ST 3.5 C Viento Sur 40 km/h

Datos Hora 14:00

Avatar de Usuario
Diecha
Mensajes: 11110
Registrado: Jue Ago 25, 2011 9:31 pm
Ubicación: Lomas de Zamora

Re: 25/6 a 2/7 - Circulación más fría en todo el país, freezer patagónico. Grandes nevadas Patagonia/Cordillera.

Mensaje por Diecha » Mar Jun 30, 2020 3:22 pm



- San Fernando 15 hs: SADF 301800Z 16012KT 1500 RA OVC007 11/11 Q1005
- Aeroparque 15 hs: SABE 301800Z 17010KT 130V230 1800 -DZ BR OVC010 11/10 Q1005
- Ezeiza 15 hs: SAEZ 301800Z 17012G22KT 1500 -RADZ BKN012 OVC028 11/10 Q1006 (ráfaga de 41 Km/h)

Imagen
Imagen
Imagen

Avatar de Usuario
Marcelo
Mensajes: 5766
Registrado: Jue Jul 30, 2009 3:42 pm
Ubicación: Villa Crespo, Ciudad de Buenos Aires

Re: 25/6 a 2/7 - Circulación más fría en todo el país, freezer patagónico. Grandes nevadas Patagonia/Cordillera.

Mensaje por Marcelo » Mar Jun 30, 2020 3:24 pm

Río Grande con -10,0°C a las 15hs y cielo despejado.

Ayer a esta hora hacía 8,3°C, valor que repitió a la hora siguiente y que fue la máxima horaria.
La posta para lo que sucede en Buenos Aires la tiene la estación de AEROPARQUE.

Mis threads de Climatología:
Mapas Climáticos de Argentina
Temperaturas Extremas de Argentina
Nevadas en Sitios Inusuales

Responder